createdAt,value
2022-11-03T00:00:32.724Z,3.10
2022-11-03T00:03:29.567Z,3.00
2022-11-03T00:06:26.409Z,2.90
2022-11-03T00:09:24.267Z,2.90
2022-11-03T00:12:21.095Z,2.90
2022-11-03T00:15:17.911Z,2.90
2022-11-03T00:18:14.746Z,3.00
2022-11-03T00:21:13.782Z,2.70
2022-11-03T00:24:11.464Z,2.80
2022-11-03T00:27:08.307Z,2.90
2022-11-03T00:30:05.696Z,3.00
2022-11-03T00:33:02.633Z,2.90
2022-11-03T00:36:01.585Z,2.90
2022-11-03T00:38:58.800Z,2.80
2022-11-03T00:41:55.623Z,2.80
2022-11-03T00:44:52.427Z,2.80
2022-11-03T00:48:07.702Z,2.70
2022-11-03T00:51:14.787Z,2.80
2022-11-03T00:54:11.755Z,2.80
2022-11-03T00:57:08.627Z,2.70
2022-11-03T01:00:06.770Z,2.80
2022-11-03T01:03:03.910Z,2.70
2022-11-03T01:06:20.040Z,2.70
2022-11-03T01:09:20.784Z,2.70
2022-11-03T01:12:19.393Z,2.80
2022-11-03T01:15:16.334Z,2.80
2022-11-03T01:18:13.175Z,2.60
2022-11-03T01:21:10.035Z,2.80
2022-11-03T01:24:07.228Z,2.70
2022-11-03T01:27:04.249Z,2.80
2022-11-03T01:30:01.115Z,2.80
2022-11-03T01:32:57.940Z,2.80
2022-11-03T01:35:54.766Z,2.80
2022-11-03T01:38:51.758Z,2.70
2022-11-03T01:41:51.216Z,2.70
2022-11-03T01:44:49.547Z,2.70
2022-11-03T01:47:47.096Z,2.80
2022-11-03T01:50:47.497Z,2.80
2022-11-03T01:53:48.610Z,2.80
2022-11-03T01:56:46.918Z,2.80
2022-11-03T01:59:46.428Z,2.70
2022-11-03T02:02:43.911Z,2.80
2022-11-03T02:05:44.405Z,2.70
2022-11-03T02:09:13.728Z,2.70
2022-11-03T02:12:10.891Z,2.70
2022-11-03T02:15:14.660Z,2.80
2022-11-03T02:18:12.762Z,2.80
2022-11-03T02:21:38.394Z,2.80
2022-11-03T02:24:58.910Z,2.80
2022-11-03T02:27:55.890Z,2.80
2022-11-03T02:31:11.073Z,2.90
2022-11-03T02:34:24.179Z,2.90
2022-11-03T02:37:27.401Z,2.90
2022-11-03T02:40:37.054Z,2.80
2022-11-03T02:43:34.378Z,2.80
2022-11-03T02:46:32.821Z,2.90
2022-11-03T02:49:29.741Z,2.80
2022-11-03T02:52:44.036Z,2.80
2022-11-03T02:55:56.592Z,2.80
2022-11-03T02:59:04.873Z,2.80
2022-11-03T03:02:15.826Z,2.80
2022-11-03T03:05:16.212Z,2.80
2022-11-03T03:08:14.894Z,2.90
2022-11-03T03:11:13.454Z,2.80
2022-11-03T03:14:17.573Z,2.80
2022-11-03T03:17:32.045Z,2.70
2022-11-03T03:20:50.619Z,2.80
2022-11-03T03:24:18.865Z,2.90
2022-11-03T03:27:20.103Z,2.90
2022-11-03T03:30:18.705Z,3.00
2022-11-03T03:33:17.961Z,3.00
2022-11-03T03:36:20.032Z,2.90
2022-11-03T03:39:19.716Z,2.80
2022-11-03T03:42:17.784Z,2.80
2022-11-03T03:45:16.130Z,2.90
2022-11-03T03:48:13.708Z,2.80
2022-11-03T03:51:13.128Z,2.90
2022-11-03T03:54:10.096Z,3.00
2022-11-03T03:57:11.400Z,2.90
2022-11-03T04:00:13.101Z,3.00
2022-11-03T04:03:23.041Z,2.90
2022-11-03T04:06:19.868Z,2.90
2022-11-03T04:09:16.698Z,3.00
2022-11-03T04:12:32.730Z,2.90
2022-11-03T04:15:49.252Z,3.00
2022-11-03T04:19:04.658Z,3.00
2022-11-03T04:22:16.361Z,3.00
2022-11-03T04:25:13.257Z,2.90
2022-11-03T04:28:14.300Z,2.90
2022-11-03T04:31:14.460Z,3.00
2022-11-03T04:34:13.186Z,2.80
2022-11-03T04:37:13.174Z,2.90
2022-11-03T04:40:17.955Z,2.90
2022-11-03T04:43:18.408Z,2.80
2022-11-03T04:46:27.838Z,2.90
2022-11-03T04:49:25.253Z,2.90
2022-11-03T04:52:22.966Z,2.90
2022-11-03T04:55:20.856Z,2.90
2022-11-03T04:58:29.981Z,3.00
2022-11-03T05:01:28.753Z,2.90
2022-11-03T05:04:25.736Z,3.00
2022-11-03T05:07:32.975Z,2.90
2022-11-03T05:10:29.855Z,2.90
2022-11-03T05:13:28.851Z,2.90
2022-11-03T05:16:25.813Z,3.00
2022-11-03T05:19:40.101Z,3.10
2022-11-03T05:22:37.551Z,3.10
2022-11-03T05:25:52.583Z,3.20
2022-11-03T05:28:55.535Z,3.10
2022-11-03T05:31:55.688Z,3.10
2022-11-03T05:34:54.782Z,3.10
2022-11-03T05:37:51.761Z,3.10
2022-11-03T05:40:54.082Z,3.10
2022-11-03T05:44:01.808Z,3.10
2022-11-03T05:47:01.921Z,3.10
2022-11-03T05:50:33.239Z,3.20
2022-11-03T05:53:38.560Z,3.20
2022-11-03T05:56:35.597Z,3.20
2022-11-03T05:59:32.466Z,3.30
2022-11-03T06:02:42.583Z,3.30
2022-11-03T06:05:41.115Z,3.40
2022-11-03T06:08:40.294Z,3.30
2022-11-03T06:11:41.650Z,3.30
2022-11-03T06:14:38.735Z,3.40
2022-11-03T06:17:37.815Z,3.30
2022-11-03T06:20:35.256Z,3.30
2022-11-03T06:23:35.346Z,3.30
2022-11-03T06:26:32.172Z,3.30
2022-11-03T06:29:33.412Z,3.30
2022-11-03T06:32:32.207Z,3.40
2022-11-03T06:35:29.127Z,3.40
2022-11-03T06:38:30.038Z,3.40
2022-11-03T06:41:30.943Z,3.40
2022-11-03T06:44:29.130Z,3.30
2022-11-03T06:47:29.128Z,3.40
2022-11-03T06:50:32.694Z,3.40
2022-11-03T06:53:34.330Z,3.40
2022-11-03T06:56:36.956Z,3.40
2022-11-03T06:59:33.817Z,3.50
2022-11-03T07:03:08.149Z,3.60
2022-11-03T07:06:11.279Z,3.70
2022-11-03T07:09:21.106Z,3.70
2022-11-03T07:12:18.908Z,3.80
2022-11-03T07:15:32.421Z,4.00
2022-11-03T07:18:35.618Z,4.00
2022-11-03T07:21:41.114Z,4.10
2022-11-03T07:24:42.052Z,4.10
2022-11-03T07:27:40.230Z,4.10
2022-11-03T07:30:37.856Z,4.20
2022-11-03T07:33:34.815Z,4.30
2022-11-03T07:36:32.287Z,4.40
2022-11-03T07:39:37.411Z,4.60
2022-11-03T07:42:34.250Z,4.60
2022-11-03T07:45:51.472Z,4.70
2022-11-03T07:49:03.239Z,4.80
2022-11-03T07:52:00.620Z,4.90
2022-11-03T07:54:59.176Z,4.90
2022-11-03T07:57:56.028Z,5.00
2022-11-03T08:00:58.931Z,5.10
2022-11-03T08:04:08.261Z,5.20
2022-11-03T08:07:05.106Z,5.30
2022-11-03T08:10:01.926Z,5.40
2022-11-03T08:12:59.083Z,5.50
2022-11-03T08:15:56.264Z,5.70
2022-11-03T08:18:53.148Z,5.80
2022-11-03T08:21:50.117Z,5.90
2022-11-03T08:24:46.947Z,6.10
2022-11-03T08:27:43.780Z,6.30
2022-11-03T08:30:41.015Z,6.40
2022-11-03T08:33:37.878Z,6.60
2022-11-03T08:36:34.890Z,6.80
2022-11-03T08:39:31.740Z,7.00
2022-11-03T08:42:28.633Z,7.30
2022-11-03T08:45:25.488Z,7.40
2022-11-03T08:48:27.225Z,7.60
2022-11-03T08:51:24.557Z,7.80
2022-11-03T08:54:21.372Z,8.10
2022-11-03T08:57:18.235Z,8.30
2022-11-03T09:00:16.975Z,8.30
2022-11-03T09:03:14.391Z,8.40
2022-11-03T09:06:11.478Z,8.50
2022-11-03T09:12:25.171Z,8.70
2022-11-03T09:15:22.202Z,8.90
2022-11-03T09:18:19.085Z,9.00
2022-11-03T09:21:16.039Z,9.10
2022-11-03T09:24:12.919Z,9.10
2022-11-03T09:27:10.244Z,9.10
2022-11-03T09:30:13.189Z,9.30
2022-11-03T09:33:10.672Z,9.50
2022-11-03T09:36:08.057Z,9.60
2022-11-03T09:39:05.074Z,9.70
2022-11-03T09:42:03.859Z,9.80
2022-11-03T09:45:01.868Z,9.90
2022-11-03T09:47:59.120Z,10.00
2022-11-03T09:50:57.732Z,10.40
2022-11-03T09:53:58.941Z,10.60
2022-11-03T09:57:05.433Z,11.10
2022-11-03T10:00:08.121Z,11.70
2022-11-03T10:03:05.735Z,11.90
2022-11-03T10:06:03.669Z,12.00
2022-11-03T10:09:00.575Z,11.90
2022-11-03T10:11:57.451Z,11.80
2022-11-03T10:14:54.982Z,12.00
2022-11-03T10:17:53.929Z,12.50
2022-11-03T10:20:50.763Z,13.20
2022-11-03T10:23:47.673Z,13.50
2022-11-03T10:26:50.605Z,13.40
2022-11-03T10:30:11.671Z,13.60
2022-11-03T10:33:40.596Z,14.30
2022-11-03T10:36:37.679Z,14.20
2022-11-03T10:39:34.665Z,14.30
2022-11-03T10:42:35.956Z,14.60
2022-11-03T10:45:33.004Z,14.30
2022-11-03T10:48:30.421Z,14.30
2022-11-03T10:51:30.910Z,14.10
2022-11-03T10:54:36.176Z,14.20
2022-11-03T10:57:33.066Z,14.60
2022-11-03T11:00:31.713Z,15.00
2022-11-03T11:03:28.710Z,15.50
2022-11-03T11:06:29.580Z,15.60
2022-11-03T11:09:28.409Z,15.30
2022-11-03T11:12:25.839Z,15.20
2022-11-03T11:15:44.470Z,15.40
2022-11-03T11:18:41.498Z,15.90
2022-11-03T11:21:38.537Z,15.70
2022-11-03T11:24:44.365Z,15.40
2022-11-03T11:27:41.234Z,15.20
2022-11-03T11:30:37.956Z,15.20
2022-11-03T11:33:34.856Z,14.70
2022-11-03T11:36:31.789Z,14.80
2022-11-03T11:39:28.712Z,14.80
2022-11-03T11:46:26.781Z,14.60
2022-11-03T11:49:23.729Z,14.20
2022-11-03T11:52:20.654Z,13.90
2022-11-03T11:55:32.666Z,13.80
2022-11-03T11:58:50.264Z,13.70
2022-11-03T12:01:54.086Z,14.20
2022-11-03T12:05:01.250Z,14.40
2022-11-03T12:07:59.752Z,14.00
2022-11-03T12:11:03.517Z,13.90
2022-11-03T12:14:00.398Z,13.60
2022-11-03T12:16:59.731Z,13.90
2022-11-03T12:19:56.673Z,14.20
2022-11-03T12:22:53.515Z,14.30
2022-11-03T12:25:50.359Z,14.40
2022-11-03T12:28:47.295Z,14.70
2022-11-03T12:31:44.253Z,14.40
2022-11-03T12:34:41.776Z,14.30
2022-11-03T12:37:38.702Z,14.00
2022-11-03T12:40:35.549Z,14.10
2022-11-03T12:43:34.448Z,13.80
2022-11-03T12:46:31.575Z,13.60
2022-11-03T12:49:28.473Z,13.80
2022-11-03T12:52:25.278Z,13.60
2022-11-03T12:55:22.167Z,13.90
2022-11-03T12:58:19.042Z,13.90
2022-11-03T13:01:16.384Z,13.90
2022-11-03T13:04:13.352Z,14.20
2022-11-03T13:07:10.196Z,13.70
2022-11-03T13:10:07.623Z,13.80
2022-11-03T13:13:04.673Z,14.00
2022-11-03T13:16:01.803Z,13.90
2022-11-03T13:18:58.711Z,13.70
2022-11-03T13:21:55.531Z,13.20
2022-11-03T13:24:52.478Z,13.10
2022-11-03T13:27:53.772Z,13.30
2022-11-03T13:30:50.667Z,13.10
2022-11-03T13:33:47.531Z,13.00
2022-11-03T13:36:44.413Z,13.10
2022-11-03T13:39:41.288Z,13.20
2022-11-03T13:42:38.532Z,13.20
2022-11-03T13:45:35.532Z,13.00
2022-11-03T13:51:49.702Z,12.80
2022-11-03T14:01:20.881Z,12.50
2022-11-03T14:07:34.631Z,12.50
2022-11-03T14:10:31.548Z,12.50
2022-11-03T14:13:28.387Z,12.50
2022-11-03T14:16:25.246Z,12.30
2022-11-03T14:19:29.408Z,12.10
2022-11-03T14:22:30.621Z,12.20
2022-11-03T14:25:27.517Z,12.30
2022-11-03T14:28:26.274Z,12.50
2022-11-03T14:31:23.279Z,12.40
2022-11-03T14:34:20.222Z,12.30
2022-11-03T14:37:17.438Z,12.10
2022-11-03T14:40:34.398Z,11.90
2022-11-03T14:43:34.974Z,11.80
2022-11-03T14:46:32.397Z,11.90
2022-11-03T14:49:30.851Z,11.60
2022-11-03T14:52:27.717Z,11.50
2022-11-03T14:55:24.566Z,11.50
2022-11-03T14:58:21.425Z,11.40
2022-11-03T15:01:19.262Z,11.50
2022-11-03T15:04:16.238Z,11.70
2022-11-03T15:07:13.063Z,11.60
2022-11-03T15:10:10.007Z,11.30
2022-11-03T15:13:07.296Z,11.30
2022-11-03T15:16:05.462Z,11.20
2022-11-03T15:19:03.742Z,11.30
2022-11-03T15:22:00.555Z,11.20
2022-11-03T15:25:12.591Z,11.20
2022-11-03T15:28:11.554Z,11.40
2022-11-03T15:31:08.857Z,11.10
2022-11-03T15:34:08.671Z,11.00
2022-11-03T15:37:05.882Z,10.90
2022-11-03T15:40:02.940Z,10.90
2022-11-03T15:43:02.960Z,11.00
2022-11-03T15:46:00.118Z,11.00
2022-11-03T15:48:57.720Z,11.10
2022-11-03T15:51:54.762Z,11.10
2022-11-03T15:54:51.723Z,11.20
2022-11-03T15:57:50.645Z,11.20
2022-11-03T16:00:47.573Z,10.90
2022-11-03T16:03:44.466Z,10.70
2022-11-03T16:07:08.965Z,10.60
2022-11-03T16:09:58.911Z,10.60
2022-11-03T16:12:55.758Z,10.50
2022-11-03T16:15:54.475Z,10.50
2022-11-03T16:18:51.684Z,10.30
2022-11-03T16:21:48.533Z,10.40
2022-11-03T16:24:47.084Z,10.20
2022-11-03T16:27:44.002Z,10.30
2022-11-03T16:30:40.850Z,10.30
2022-11-03T16:33:37.681Z,10.10
2022-11-03T16:36:34.598Z,10.00
2022-11-03T16:39:31.490Z,10.00
2022-11-03T16:42:29.231Z,10.10
2022-11-03T16:45:27.597Z,10.00
2022-11-03T16:48:24.665Z,10.00
2022-11-03T16:51:22.050Z,10.20
2022-11-03T16:54:18.926Z,10.10
2022-11-03T16:57:15.773Z,10.20
2022-11-03T17:00:17.169Z,10.20
2022-11-03T17:03:14.112Z,10.20
2022-11-03T17:06:10.988Z,10.30
2022-11-03T17:09:12.308Z,10.30
2022-11-03T17:12:09.165Z,10.10
2022-11-03T17:15:08.866Z,10.00
2022-11-03T17:18:06.081Z,9.90
2022-11-03T17:21:03.166Z,9.80
2022-11-03T17:24:01.017Z,9.60
2022-11-03T17:27:07.938Z,9.50
2022-11-03T17:30:11.276Z,9.60
2022-11-03T17:33:15.419Z,9.60
2022-11-03T17:36:12.485Z,9.50
2022-11-03T17:39:14.970Z,9.30
2022-11-03T17:42:27.717Z,9.30
2022-11-03T17:45:26.304Z,9.30
2022-11-03T17:48:24.322Z,9.50
2022-11-03T17:51:21.263Z,9.30
2022-11-03T17:54:18.435Z,9.40
2022-11-03T17:57:20.835Z,9.20
2022-11-03T18:00:20.938Z,9.00
2022-11-03T18:03:17.769Z,9.10
2022-11-03T18:06:19.991Z,9.00
2022-11-03T18:09:19.206Z,9.00
2022-11-03T18:12:36.544Z,9.00
2022-11-03T18:15:36.955Z,8.90
2022-11-03T18:18:46.049Z,8.80
2022-11-03T18:21:46.230Z,8.80
2022-11-03T18:24:43.049Z,8.80
2022-11-03T18:27:39.984Z,8.90
2022-11-03T18:30:38.794Z,8.80
2022-11-03T18:33:36.377Z,8.80
2022-11-03T18:36:34.245Z,8.80
2022-11-03T18:39:31.423Z,8.70
2022-11-03T18:42:37.152Z,8.70
2022-11-03T18:45:42.112Z,8.90
2022-11-03T18:48:38.943Z,8.80
2022-11-03T18:51:41.335Z,8.80
2022-11-03T18:54:47.052Z,8.80
2022-11-03T18:57:45.002Z,8.90
2022-11-03T19:00:42.183Z,8.70
2022-11-03T19:03:41.039Z,8.90
2022-11-03T19:06:40.076Z,8.90
2022-11-03T19:09:37.186Z,8.90
2022-11-03T19:12:38.770Z,8.90
2022-11-03T19:15:36.635Z,8.90
2022-11-03T19:18:36.047Z,8.90
2022-11-03T19:21:32.969Z,8.80
2022-11-03T19:24:29.786Z,8.80
2022-11-03T19:27:44.315Z,8.80
2022-11-03T19:30:41.789Z,8.80
2022-11-03T19:33:46.726Z,8.80
2022-11-03T19:36:44.710Z,8.80
2022-11-03T19:39:41.668Z,8.80
2022-11-03T19:42:38.539Z,8.80
2022-11-03T19:45:35.422Z,8.90
2022-11-03T19:48:39.078Z,8.90
2022-11-03T19:51:38.685Z,8.80
2022-11-03T19:54:35.509Z,8.80
2022-11-03T19:57:35.048Z,8.90
2022-11-03T20:00:32.033Z,8.90
2022-11-03T20:03:28.935Z,8.90
2022-11-03T20:06:34.082Z,8.90
2022-11-03T20:09:31.545Z,9.00
2022-11-03T20:12:33.216Z,9.00
2022-11-03T20:15:30.426Z,9.00
2022-11-03T20:18:27.338Z,8.90
2022-11-03T20:21:26.159Z,8.70
2022-11-03T20:24:25.710Z,8.70
2022-11-03T20:27:22.582Z,8.70
2022-11-03T20:30:21.935Z,9.20
2022-11-03T20:33:22.322Z,9.20
2022-11-03T20:36:20.603Z,9.10
2022-11-03T20:39:18.571Z,9.00
2022-11-03T20:42:23.589Z,9.20
2022-11-03T20:45:23.556Z,9.40
2022-11-03T20:48:20.559Z,9.40
2022-11-03T20:51:20.345Z,9.30
2022-11-03T20:54:20.853Z,9.40
2022-11-03T20:57:17.701Z,9.30
2022-11-03T21:00:27.010Z,9.10
2022-11-03T21:03:37.986Z,9.30
2022-11-03T21:06:50.242Z,9.20
2022-11-03T21:09:47.104Z,9.10
2022-11-03T21:12:44.727Z,9.20
2022-11-03T21:16:23.090Z,9.10
2022-11-03T21:19:44.046Z,9.20
2022-11-03T21:22:52.357Z,9.10
2022-11-03T21:25:50.003Z,9.10
2022-11-03T21:28:46.841Z,9.10
2022-11-03T21:31:43.671Z,9.10
2022-11-03T21:34:41.267Z,9.30
2022-11-03T21:37:38.103Z,9.30
2022-11-03T21:40:35.161Z,9.30
2022-11-03T21:44:10.185Z,9.40
2022-11-03T21:47:07.209Z,9.40
2022-11-03T21:50:04.357Z,9.40
2022-11-03T21:53:01.203Z,9.50
2022-11-03T21:55:58.390Z,9.50
2022-11-03T21:58:55.246Z,9.60
2022-11-03T22:01:54.926Z,9.60
2022-11-03T22:04:54.656Z,9.70
2022-11-03T22:07:51.561Z,9.80
2022-11-03T22:10:48.405Z,9.80
2022-11-03T22:13:45.661Z,9.70
2022-11-03T22:16:44.315Z,9.70
2022-11-03T22:19:59.652Z,9.60
2022-11-03T22:23:19.582Z,9.60
2022-11-03T22:26:35.333Z,9.70
2022-11-03T22:29:50.396Z,9.60
2022-11-03T22:32:53.895Z,9.50
2022-11-03T22:36:09.067Z,9.40
2022-11-03T22:39:24.238Z,9.30
2022-11-03T22:42:39.532Z,9.00
2022-11-03T22:45:52.563Z,8.90
2022-11-03T22:48:49.376Z,8.70
2022-11-03T22:51:46.222Z,8.60
2022-11-03T22:54:43.109Z,8.50
2022-11-03T22:57:39.939Z,8.40
2022-11-03T23:00:36.768Z,8.30
2022-11-03T23:03:35.835Z,8.40
2022-11-03T23:06:38.665Z,8.40
2022-11-03T23:09:35.558Z,8.40
2022-11-03T23:12:32.497Z,8.20
2022-11-03T23:15:32.047Z,8.10
2022-11-03T23:18:47.565Z,8.10
2022-11-03T23:21:47.747Z,8.10
2022-11-03T23:24:59.998Z,8.10
2022-11-03T23:27:56.833Z,8.00
2022-11-03T23:30:53.662Z,8.00
2022-11-03T23:33:50.632Z,8.10
2022-11-03T23:36:47.576Z,8.10
2022-11-03T23:39:44.505Z,8.10
2022-11-03T23:42:41.321Z,8.00
2022-11-03T23:45:56.840Z,8.10
2022-11-03T23:48:54.099Z,8.20
2022-11-03T23:51:51.215Z,8.40
2022-11-03T23:54:48.069Z,8.50
2022-11-03T23:58:03.103Z,8.70
